sensor_id;sensor_type;location;lat;lon;timestamp;pressure;altitude;pressure_sealevel;temperature;humidity
20620;BME280;10469;42.720;23.252;2023-03-04T00:00:23;94958.03;;;5.15;100.00
20620;BME280;10469;42.720;23.252;2023-03-04T00:02:48;94953.09;;;5.12;100.00
20620;BME280;10469;42.720;23.252;2023-03-04T00:05:14;94955.53;;;5.07;100.00
20620;BME280;10469;42.720;23.252;2023-03-04T00:07:40;94966.59;;;5.17;100.00
20620;BME280;10469;42.720;23.252;2023-03-04T00:10:05;94958.03;;;5.15;100.00
20620;BME280;10469;42.720;23.252;2023-03-04T00:12:31;94961.53;;;5.22;100.00
20620;BME280;10469;42.720;23.252;2023-03-04T00:14:57;94957.63;;;5.18;100.00
20620;BME280;10469;42.720;23.252;2023-03-04T00:17:22;94950.66;;;5.17;100.00
20620;BME280;10469;42.720;23.252;2023-03-04T00:19:48;94939.38;;;5.09;100.00
20620;BME280;10469;42.720;23.252;2023-03-04T00:22:14;94947.59;;;5.20;100.00
20620;BME280;10469;42.720;23.252;2023-03-04T00:24:40;94953.72;;;5.14;100.00
20620;BME280;10469;42.720;23.252;2023-03-04T00:27:05;94946.53;;;5.08;100.00
20620;BME280;10469;42.720;23.252;2023-03-04T00:29:31;94950.66;;;5.17;100.00
20620;BME280;10469;42.720;23.252;2023-03-04T00:31:56;94931.00;;;5.12;100.00
20620;BME280;10469;42.720;23.252;2023-03-04T00:34:22;94931.84;;;5.12;100.00
20620;BME280;10469;42.720;23.252;2023-03-04T00:36:47;94938.97;;;5.05;100.00
20620;BME280;10469;42.720;23.252;2023-03-04T00:39:13;94927.97;;;5.21;100.00
20620;BME280;10469;42.720;23.252;2023-03-04T00:41:39;94933.06;;;5.10;100.00
20620;BME280;10469;42.720;23.252;2023-03-04T00:44:05;94926.31;;;5.07;100.00
20620;BME280;10469;42.720;23.252;2023-03-04T00:46:31;94926.09;;;5.02;100.00
20620;BME280;10469;42.720;23.252;2023-03-04T00:48:56;94929.56;;;5.02;100.00
20620;BME280;10469;42.720;23.252;2023-03-04T00:51:22;94933.47;;;5.13;100.00
20620;BME280;10469;42.720;23.252;2023-03-04T00:53:47;94930.19;;;5.18;100.00
20620;BME280;10469;42.720;23.252;2023-03-04T00:56:13;94918.56;;;5.19;100.00
20620;BME280;10469;42.720;23.252;2023-03-04T00:58:39;94925.72;;;5.25;100.00
20620;BME280;10469;42.720;23.252;2023-03-04T01:01:06;94923.91;;;5.39;100.00
20620;BME280;10469;42.720;23.252;2023-03-04T01:03:31;94928.81;;;5.42;100.00
20620;BME280;10469;42.720;23.252;2023-03-04T01:05:58;94925.75;;;5.45;100.00
20620;BME280;10469;42.720;23.252;2023-03-04T01:08:24;94919.78;;;5.29;100.00
20620;BME280;10469;42.720;23.252;2023-03-04T01:10:51;94927.19;;;5.54;100.00
20620;BME280;10469;42.720;23.252;2023-03-04T01:13:16;94919.63;;;5.51;100.00
20620;BME280;10469;42.720;23.252;2023-03-04T01:15:42;94926.16;;;5.55;100.00
20620;BME280;10469;42.720;23.252;2023-03-04T01:18:08;94923.69;;;5.47;100.00
20620;BME280;10469;42.720;23.252;2023-03-04T01:20:33;94917.56;;;5.40;100.00
20620;BME280;10469;42.720;23.252;2023-03-04T01:22:59;94921.44;;;5.44;100.00
20620;BME280;10469;42.720;23.252;2023-03-04T01:25:25;94915.53;;;5.48;100.00
20620;BME280;10469;42.720;23.252;2023-03-04T01:27:50;94905.06;;;5.34;100.00
20620;BME280;10469;42.720;23.252;2023-03-04T01:30:16;94917.75;;;5.25;100.00
20620;BME280;10469;42.720;23.252;2023-03-04T01:32:42;94920.03;;;5.41;100.00
20620;BME280;10469;42.720;23.252;2023-03-04T01:35:08;94904.69;;;5.50;100.00
20620;BME280;10469;42.720;23.252;2023-03-04T01:37:33;94904.66;;;5.43;100.00
20620;BME280;10469;42.720;23.252;2023-03-04T01:39:59;94891.38;;;5.10;100.00
20620;BME280;10469;42.720;23.252;2023-03-04T01:42:26;94891.34;;;5.03;100.00
20620;BME280;10469;42.720;23.252;2023-03-04T01:44:52;94881.94;;;5.08;100.00
20620;BME280;10469;42.720;23.252;2023-03-04T01:47:18;94888.88;;;5.02;100.00
20620;BME280;10469;42.720;23.252;2023-03-04T01:49:46;94894.03;;;5.10;100.00
20620;BME280;10469;42.720;23.252;2023-03-04T01:52:15;94890.97;;;5.20;100.00
20620;BME280;10469;42.720;23.252;2023-03-04T01:54:40;94883.59;;;5.15;100.00
20620;BME280;10469;42.720;23.252;2023-03-04T01:57:15;94889.91;;;5.08;100.00
20620;BME280;10469;42.720;23.252;2023-03-04T01:59:41;94878.88;;;5.17;100.00
20620;BME280;10469;42.720;23.252;2023-03-04T02:02:07;94884.63;;;5.21;100.00
20620;BME280;10469;42.720;23.252;2023-03-04T02:04:33;94878.91;;;5.24;100.00
20620;BME280;10469;42.720;23.252;2023-03-04T02:07:00;94882.78;;;5.28;100.00
20620;BME280;10469;42.720;23.252;2023-03-04T02:09:27;94891.38;;;5.23;100.00
20620;BME280;10469;42.720;23.252;2023-03-04T02:11:54;94885.44;;;5.28;100.00
20620;BME280;10469;42.720;23.252;2023-03-04T02:14:20;94881.75;;;5.16;100.00
20620;BME280;10469;42.720;23.252;2023-03-04T02:16:47;94877.06;;;5.24;100.00
20620;BME280;10469;42.720;23.252;2023-03-04T02:19:48;94879.13;;;5.22;100.00
20620;BME280;10469;42.720;23.252;2023-03-04T02:22:15;94879.50;;;5.26;100.00
20620;BME280;10469;42.720;23.252;2023-03-04T02:24:51;94878.69;;;5.12;100.00
20620;BME280;10469;42.720;23.252;2023-03-04T02:27:18;94873.16;;;5.20;100.00
20620;BME280;10469;42.720;23.252;2023-03-04T02:29:44;94874.81;;;5.28;100.00
20620;BME280;10469;42.720;23.252;2023-03-04T02:32:12;94878.69;;;5.25;100.00
20620;BME280;10469;42.720;23.252;2023-03-04T02:34:43;94880.94;;;5.35;100.00
20620;BME280;10469;42.720;23.252;2023-03-04T02:37:10;94882.41;;;5.44;100.00
20620;BME280;10469;42.720;23.252;2023-03-04T02:39:40;94875.84;;;5.34;100.00
20620;BME280;10469;42.720;23.252;2023-03-04T02:42:07;94860.72;;;5.41;100.00
20620;BME280;10469;42.720;23.252;2023-03-04T02:44:35;94873.16;;;5.34;100.00
20620;BME280;10469;42.720;23.252;2023-03-04T02:47:03;94854.56;;;5.34;100.00
20620;BME280;10469;42.720;23.252;2023-03-04T02:49:30;94869.72;;;5.40;100.00
20620;BME280;10469;42.720;23.252;2023-03-04T02:54:25;94845.56;;;5.28;100.00
20620;BME280;10469;42.720;23.252;2023-03-04T02:56:53;94857.03;;;5.28;100.00
20620;BME280;10469;42.720;23.252;2023-03-04T02:59:19;94844.56;;;5.22;100.00
20620;BME280;10469;42.720;23.252;2023-03-04T03:01:46;94852.09;;;5.12;100.00
20620;BME280;10469;42.720;23.252;2023-03-04T03:04:11;94860.28;;;5.24;100.00
20620;BME280;10469;42.720;23.252;2023-03-04T03:06:38;94859.88;;;5.34;100.00
20620;BME280;10469;42.720;23.252;2023-03-04T03:09:04;94866.03;;;5.27;100.00
20620;BME280;10469;42.720;23.252;2023-03-04T03:11:29;94860.28;;;5.11;100.00
20620;BME280;10469;42.720;23.252;2023-03-04T03:13:55;94862.34;;;5.15;100.00
20620;BME280;10469;42.720;23.252;2023-03-04T03:16:21;94856.38;;;5.00;100.00
20620;BME280;10469;42.720;23.252;2023-03-04T03:18:47;94869.66;;;5.13;100.00
20620;BME280;10469;42.720;23.252;2023-03-04T03:21:15;94862.72;;;5.12;100.00
20620;BME280;10469;42.720;23.252;2023-03-04T03:23:41;94866.63;;;5.16;100.00
20620;BME280;10469;42.720;23.252;2023-03-04T03:26:07;94863.94;;;5.03;100.00
20620;BME280;10469;42.720;23.252;2023-03-04T03:28:33;94842.47;;;5.04;100.00
20620;BME280;10469;42.720;23.252;2023-03-04T03:30:59;94859.25;;;4.98;100.00
20620;BME280;10469;42.720;23.252;2023-03-04T03:33:24;94863.53;;;4.93;100.00
20620;BME280;10469;42.720;23.252;2023-03-04T03:35:50;94859.63;;;4.89;100.00
20620;BME280;10469;42.720;23.252;2023-03-04T03:38:16;94858.75;;;4.68;100.00
20620;BME280;10469;42.720;23.252;2023-03-04T03:40:41;94864.28;;;4.73;100.00
20620;BME280;10469;42.720;23.252;2023-03-04T03:43:07;94843.44;;;4.64;100.00
20620;BME280;10469;42.720;23.252;2023-03-04T03:45:32;94845.47;;;4.68;100.00
20620;BME280;10469;42.720;23.252;2023-03-04T03:47:58;94867.59;;;4.75;100.00
20620;BME280;10469;42.720;23.252;2023-03-04T03:50:23;94855.50;;;4.73;100.00
20620;BME280;10469;42.720;23.252;2023-03-04T03:52:49;94862.44;;;4.74;100.00
20620;BME280;10469;42.720;23.252;2023-03-04T03:55:15;94847.94;;;4.70;100.00
20620;BME280;10469;42.720;23.252;2023-03-04T03:57:40;94856.06;;;4.62;100.00
20620;BME280;10469;42.720;23.252;2023-03-04T04:00:07;94856.09;;;4.68;100.00
20620;BME280;10469;42.720;23.252;2023-03-04T04:02:33;94852.84;;;4.73;100.00
20620;BME280;10469;42.720;23.252;2023-03-04T04:04:59;94847.97;;;4.76;100.00
20620;BME280;10469;42.720;23.252;2023-03-04T04:07:24;94846.22;;;4.42;100.00
20620;BME280;10469;42.720;23.252;2023-03-04T04:09:50;94841.94;;;4.48;100.00
20620;BME280;10469;42.720;23.252;2023-03-04T04:12:15;94840.50;;;4.39;100.00
20620;BME280;10469;42.720;23.252;2023-03-04T04:14:41;94839.25;;;4.35;100.00
20620;BME280;10469;42.720;23.252;2023-03-04T04:17:07;94843.56;;;4.49;100.00
20620;BME280;10469;42.720;23.252;2023-03-04T04:19:33;94838.50;;;4.54;100.00
20620;BME280;10469;42.720;23.252;2023-03-04T04:21:59;94837.69;;;4.60;100.00
20620;BME280;10469;42.720;23.252;2023-03-04T04:24:24;94828.72;;;4.55;100.00
20620;BME280;10469;42.720;23.252;2023-03-04T04:26:50;94838.13;;;4.64;100.00
20620;BME280;10469;42.720;23.252;2023-03-04T04:29:16;94830.72;;;4.52;100.00
20620;BME280;10469;42.720;23.252;2023-03-04T04:31:41;94837.91;;;4.59;100.00
20620;BME280;10469;42.720;23.252;2023-03-04T04:34:07;94827.06;;;4.53;100.00
20620;BME280;10469;42.720;23.252;2023-03-04T04:36:33;94834.19;;;4.53;100.00
20620;BME280;10469;42.720;23.252;2023-03-04T04:38:58;94835.69;;;4.62;100.00
20620;BME280;10469;42.720;23.252;2023-03-04T04:41:27;94842.41;;;4.65;100.00
20620;BME280;10469;42.720;23.252;2023-03-04T04:43:54;94837.69;;;4.53;100.00
20620;BME280;10469;42.720;23.252;2023-03-04T04:46:20;94841.38;;;4.59;100.00
20620;BME280;10469;42.720;23.252;2023-03-04T04:48:46;94840.56;;;4.59;100.00
20620;BME280;10469;42.720;23.252;2023-03-04T04:51:12;94839.28;;;4.41;100.00
20620;BME280;10469;42.720;23.252;2023-03-04T04:53:37;94839.94;;;4.50;100.00
20620;BME280;10469;42.720;23.252;2023-03-04T04:56:17;94851.97;;;4.46;100.00
20620;BME280;10469;42.720;23.252;2023-03-04T04:58:44;94846.69;;;4.59;100.00
20620;BME280;10469;42.720;23.252;2023-03-04T05:01:10;94852.44;;;4.63;100.00
20620;BME280;10469;42.720;23.252;2023-03-04T05:03:37;94842.41;;;4.65;100.00
20620;BME280;10469;42.720;23.252;2023-03-04T05:06:05;94858.16;;;4.66;100.00
20620;BME280;10469;42.720;23.252;2023-03-04T05:08:32;94857.78;;;4.76;100.00
20620;BME280;10469;42.720;23.252;2023-03-04T05:10:58;94862.09;;;4.84;100.00
20620;BME280;10469;42.720;23.252;2023-03-04T05:13:23;94865.91;;;4.74;100.00
20620;BME280;10469;42.720;23.252;2023-03-04T05:15:53;94874.72;;;4.75;100.00
20620;BME280;10469;42.720;23.252;2023-03-04T05:18:20;94868.84;;;4.93;100.00
20620;BME280;10469;42.720;23.252;2023-03-04T05:20:50;94872.31;;;4.93;100.00
20620;BME280;10469;42.720;23.252;2023-03-04T05:23:16;94871.88;;;4.76;100.00
20620;BME280;10469;42.720;23.252;2023-03-04T05:25:42;94872.53;;;4.98;100.00
20620;BME280;10469;42.720;23.252;2023-03-04T05:28:07;94869.63;;;4.80;100.00
20620;BME280;10469;42.720;23.252;2023-03-04T05:30:40;94861.06;;;4.85;100.00
20620;BME280;10469;42.720;23.252;2023-03-04T05:33:06;94879.13;;;5.22;100.00
20620;BME280;10469;42.720;23.252;2023-03-04T05:35:37;94888.28;;;5.07;100.00
20620;BME280;10469;42.720;23.252;2023-03-04T05:38:05;94880.34;;;5.53;100.00
20620;BME280;10469;42.720;23.252;2023-03-04T05:40:31;94885.88;;;5.58;100.00
20620;BME280;10469;42.720;23.252;2023-03-04T05:42:57;94869.31;;;5.36;100.00
20620;BME280;10469;42.720;23.252;2023-03-04T05:45:25;94877.88;;;5.51;100.00
20620;BME280;10469;42.720;23.252;2023-03-04T05:47:52;94875.81;;;5.73;100.00
20620;BME280;10469;42.720;23.252;2023-03-04T05:50:18;94867.84;;;5.47;100.00
20620;BME280;10469;42.720;23.252;2023-03-04T05:52:44;94877.03;;;5.77;100.00
20620;BME280;10469;42.720;23.252;2023-03-04T05:55:10;94881.13;;;6.07;100.00
20620;BME280;10469;42.720;23.252;2023-03-04T05:57:36;94877.84;;;5.91;100.00
20620;BME280;10469;42.720;23.252;2023-03-04T06:00:03;94885.44;;;5.94;100.00
20620;BME280;10469;42.720;23.252;2023-03-04T06:02:30;94891.56;;;5.68;100.00
20620;BME280;10469;42.720;23.252;2023-03-04T06:04:55;94892.59;;;6.07;100.00
20620;BME280;10469;42.720;23.252;2023-03-04T06:07:21;94889.09;;;5.87;100.00
20620;BME280;10469;42.720;23.252;2023-03-04T06:09:46;94890.75;;;5.81;100.00
20620;BME280;10469;42.720;23.252;2023-03-04T06:12:12;94883.63;;;5.48;100.00
20620;BME280;10469;42.720;23.252;2023-03-04T06:14:37;94892.63;;;5.67;100.00
20620;BME280;10469;42.720;23.252;2023-03-04T06:17:03;94896.47;;;5.91;100.00
20620;BME280;10469;42.720;23.252;2023-03-04T06:19:29;94895.66;;;5.91;100.00
20620;BME280;10469;42.720;23.252;2023-03-04T06:21:54;94903.03;;;5.89;100.00
20620;BME280;10469;42.720;23.252;2023-03-04T06:24:20;94902.41;;;5.87;100.00
20620;BME280;10469;42.720;23.252;2023-03-04T06:26:45;94901.19;;;5.89;100.00
20620;BME280;10469;42.720;23.252;2023-03-04T06:29:11;94910.81;;;5.84;100.00
20620;BME280;10469;42.720;23.252;2023-03-04T06:31:37;94897.69;;;6.22;100.00
20620;BME280;10469;42.720;23.252;2023-03-04T06:34:03;94894.19;;;6.21;100.00
20620;BME280;10469;42.720;23.252;2023-03-04T06:36:29;94911.00;;;6.73;100.00
20620;BME280;10469;42.720;23.252;2023-03-04T06:38:55;94914.00;;;6.90;100.00
20620;BME280;10469;42.720;23.252;2023-03-04T06:41:20;94909.44;;;6.59;100.00
20620;BME280;10469;42.720;23.252;2023-03-04T06:43:46;94911.09;;;6.53;100.00
20620;BME280;10469;42.720;23.252;2023-03-04T06:46:12;94903.47;;;6.70;100.00
20620;BME280;10469;42.720;23.252;2023-03-04T06:48:37;94905.09;;;6.65;100.00
20620;BME280;10469;42.720;23.252;2023-03-04T06:51:07;94902.56;;;6.25;100.00
20620;BME280;10469;42.720;23.252;2023-03-04T06:53:34;94913.84;;;6.20;100.00
20620;BME280;10469;42.720;23.252;2023-03-04T06:55:59;94903.78;;;6.36;100.00
20620;BME280;10469;42.720;23.252;2023-03-04T06:58:25;94899.13;;;6.76;100.00
20620;BME280;10469;42.720;23.252;2023-03-04T07:00:50;94908.16;;;6.10;100.00
20620;BME280;10469;42.720;23.252;2023-03-04T07:03:16;94915.06;;;6.31;100.00
20620;BME280;10469;42.720;23.252;2023-03-04T07:05:42;94915.25;;;6.36;100.00
20620;BME280;10469;42.720;23.252;2023-03-04T07:08:08;94905.31;;;6.63;100.00
20620;BME280;10469;42.720;23.252;2023-03-04T07:10:33;94912.19;;;6.33;100.00
20620;BME280;10469;42.720;23.252;2023-03-04T07:12:59;94930.00;;;6.90;100.00
20620;BME280;10469;42.720;23.252;2023-03-04T07:15:25;94923.25;;;6.29;100.00
20620;BME280;10469;42.720;23.252;2023-03-04T07:17:51;94916.75;;;5.99;100.00
20620;BME280;10469;42.720;23.252;2023-03-04T07:20:17;94916.78;;;5.92;100.00
20620;BME280;10469;42.720;23.252;2023-03-04T07:22:42;94931.91;;;5.98;100.00
20620;BME280;10469;42.720;23.252;2023-03-04T07:25:09;94914.53;;;5.96;100.00
20620;BME280;10469;42.720;23.252;2023-03-04T07:27:35;94932.91;;;6.17;100.00
20620;BME280;10469;42.720;23.252;2023-03-04T07:30:04;94930.66;;;6.14;100.00
20620;BME280;10469;42.720;23.252;2023-03-04T07:32:29;94922.22;;;6.44;100.00
20620;BME280;10469;42.720;23.252;2023-03-04T07:34:55;94904.75;;;6.54;100.00
20620;BME280;10469;42.720;23.252;2023-03-04T07:37:21;94926.50;;;7.35;100.00
20620;BME280;10469;42.720;23.252;2023-03-04T07:39:46;94918.97;;;7.57;100.00
20620;BME280;10469;42.720;23.252;2023-03-04T07:42:12;94915.44;;;8.06;100.00
20620;BME280;10469;42.720;23.252;2023-03-04T07:44:37;94910.72;;;7.83;100.00
20620;BME280;10469;42.720;23.252;2023-03-04T07:47:03;94909.25;;;7.62;100.00
20620;BME280;10469;42.720;23.252;2023-03-04T07:49:29;94907.34;;;7.13;100.00
20620;BME280;10469;42.720;23.252;2023-03-04T07:51:54;94903.88;;;7.37;100.00
20620;BME280;10469;42.720;23.252;2023-03-04T07:54:20;94909.66;;;7.66;100.00
20620;BME280;10469;42.720;23.252;2023-03-04T07:56:45;94914.88;;;8.04;100.00
20620;BME280;10469;42.720;23.252;2023-03-04T07:59:11;94911.69;;;7.64;100.00
20620;BME280;10469;42.720;23.252;2023-03-04T08:01:37;94910.09;;;7.31;100.00
20620;BME280;10469;42.720;23.252;2023-03-04T08:04:05;94912.38;;;6.96;100.00
20620;BME280;10469;42.720;23.252;2023-03-04T08:06:32;94915.91;;;7.21;100.00
20620;BME280;10469;42.720;23.252;2023-03-04T08:09:03;94905.19;;;7.28;100.00
20620;BME280;10469;42.720;23.252;2023-03-04T08:11:30;94905.84;;;7.23;100.00
20620;BME280;10469;42.720;23.252;2023-03-04T08:13:56;94902.66;;;7.08;100.00
20620;BME280;10469;42.720;23.252;2023-03-04T08:16:22;94904.28;;;6.71;100.00
20620;BME280;10469;42.720;23.252;2023-03-04T08:18:50;94904.06;;;6.72;100.00
20620;BME280;10469;42.720;23.252;2023-03-04T08:21:18;94909.72;;;7.21;100.00
20620;BME280;10469;42.720;23.252;2023-03-04T08:23:44;94905.19;;;6.90;100.00
20620;BME280;10469;42.720;23.252;2023-03-04T08:26:13;94906.22;;;6.95;100.00
20620;BME280;10469;42.720;23.252;2023-03-04T08:28:40;94904.38;;;7.27;100.00
20620;BME280;10469;42.720;23.252;2023-03-04T08:31:05;94887.97;;;7.24;100.00
20620;BME280;10469;42.720;23.252;2023-03-04T08:33:32;94910.84;;;7.38;100.00
20620;BME280;10469;42.720;23.252;2023-03-04T08:35:58;94901.47;;;7.29;100.00
20620;BME280;10469;42.720;23.252;2023-03-04T08:38:24;94903.22;;;7.17;100.00
20620;BME280;10469;42.720;23.252;2023-03-04T08:40:54;94904.59;;;6.88;100.00
20620;BME280;10469;42.720;23.252;2023-03-04T08:43:20;94891.91;;;6.83;100.00
20620;BME280;10469;42.720;23.252;2023-03-04T08:45:46;94901.63;;;6.64;100.00
20620;BME280;10469;42.720;23.252;2023-03-04T08:48:12;94894.22;;;7.11;100.00
20620;BME280;10469;42.720;23.252;2023-03-04T08:50:38;94898.47;;;6.81;100.00
20620;BME280;10469;42.720;23.252;2023-03-04T08:53:03;94891.88;;;6.90;100.00
20620;BME280;10469;42.720;23.252;2023-03-04T08:55:29;94889.25;;;7.21;100.00
20620;BME280;10469;42.720;23.252;2023-03-04T08:57:54;94886.56;;;7.21;100.00
20620;BME280;10469;42.720;23.252;2023-03-04T09:00:20;94874.09;;;7.15;100.00
20620;BME280;10469;42.720;23.252;2023-03-04T09:02:48;94888.41;;;7.77;100.00
20620;BME280;10469;42.720;23.252;2023-03-04T09:05:14;94894.34;;;7.79;100.00
20620;BME280;10469;42.720;23.252;2023-03-04T09:07:39;94884.50;;;8.42;100.00
20620;BME280;10469;42.720;23.252;2023-03-04T09:10:05;94890.97;;;8.09;100.00
20620;BME280;10469;42.720;23.252;2023-03-04T09:12:31;94878.47;;;7.85;100.00
20620;BME280;10469;42.720;23.252;2023-03-04T09:14:56;94863.50;;;7.84;100.00
20620;BME280;10469;42.720;23.252;2023-03-04T09:17:22;94878.41;;;8.35;100.00
20620;BME280;10469;42.720;23.252;2023-03-04T09:19:48;94880.91;;;8.29;100.00
20620;BME280;10469;42.720;23.252;2023-03-04T09:22:13;94860.31;;;8.37;100.00
20620;BME280;10469;42.720;23.252;2023-03-04T09:24:39;94857.78;;;7.98;100.00
20620;BME280;10469;42.720;23.252;2023-03-04T09:27:04;94865.91;;;8.28;100.00
20620;BME280;10469;42.720;23.252;2023-03-04T09:29:31;94864.16;;;8.77;100.00
20620;BME280;10469;42.720;23.252;2023-03-04T09:31:57;94873.66;;;8.37;100.00
20620;BME280;10469;42.720;23.252;2023-03-04T09:34:22;94867.44;;;8.91;100.00
20620;BME280;10469;42.720;23.252;2023-03-04T09:36:48;94860.16;;;8.98;100.00
20620;BME280;10469;42.720;23.252;2023-03-04T09:39:14;94863.06;;;8.97;100.00
20620;BME280;10469;42.720;23.252;2023-03-04T09:41:45;94847.94;;;9.33;100.00
20620;BME280;10469;42.720;23.252;2023-03-04T09:46:51;94853.00;;;8.25;100.00
20620;BME280;10469;42.720;23.252;2023-03-04T09:49:20;94855.38;;;8.70;100.00
20620;BME280;10469;42.720;23.252;2023-03-04T09:52:03;94858.13;;;8.82;100.00
20620;BME280;10469;42.720;23.252;2023-03-04T10:00:24;94839.38;;;10.01;100.00
20620;BME280;10469;42.720;23.252;2023-03-04T10:05:26;94830.00;;;10.62;100.00
20620;BME280;10469;42.720;23.252;2023-03-04T10:07:59;94833.06;;;10.42;100.00
20620;BME280;10469;42.720;23.252;2023-03-04T10:10:36;94835.97;;;10.93;100.00
20620;BME280;10469;42.720;23.252;2023-03-04T10:13:05;94830.75;;;9.52;100.00
20620;BME280;10469;42.720;23.252;2023-03-04T10:15:38;94826.22;;;10.35;100.00
20620;BME280;10469;42.720;23.252;2023-03-04T10:18:29;94825.53;;;10.04;100.00
20620;BME280;10469;42.720;23.252;2023-03-04T10:21:05;94822.72;;;9.52;100.00
20620;BME280;10469;42.720;23.252;2023-03-04T10:23:34;94816.66;;;9.57;100.00
20620;BME280;10469;42.720;23.252;2023-03-04T10:26:11;94814.50;;;9.23;100.00
20620;BME280;10469;42.720;23.252;2023-03-04T10:28:38;94816.16;;;8.83;100.00
20620;BME280;10469;42.720;23.252;2023-03-04T10:31:20;94809.53;;;8.55;100.00
20620;BME280;10469;42.720;23.252;2023-03-04T10:33:53;94816.19;;;8.27;100.00
20620;BME280;10469;42.720;23.252;2023-03-04T10:41:24;94795.88;;;8.45;100.00
20620;BME280;10469;42.720;23.252;2023-03-04T10:46:32;94783.28;;;9.59;100.00
20620;BME280;10469;42.720;23.252;2023-03-04T10:48:58;94781.63;;;9.58;100.00
20620;BME280;10469;42.720;23.252;2023-03-04T10:51:26;94775.19;;;9.12;100.00
20620;BME280;10469;42.720;23.252;2023-03-04T10:54:16;94778.22;;;9.16;100.00
20620;BME280;10469;42.720;23.252;2023-03-04T10:57:05;94781.25;;;8.29;100.00
20620;BME280;10469;42.720;23.252;2023-03-04T10:59:49;94773.31;;;8.41;100.00
20620;BME280;10469;42.720;23.252;2023-03-04T11:02:24;94771.34;;;8.66;100.00
20620;BME280;10469;42.720;23.252;2023-03-04T11:05:23;94770.53;;;9.08;100.00
20620;BME280;10469;42.720;23.252;2023-03-04T11:07:57;94759.94;;;9.13;100.00
20620;BME280;10469;42.720;23.252;2023-03-04T11:15:54;94746.34;;;9.26;100.00
20620;BME280;10469;42.720;23.252;2023-03-04T11:20:56;94735.66;;;9.49;100.00
20620;BME280;10469;42.720;23.252;2023-03-04T11:26:27;94732.63;;;9.58;100.00
20620;BME280;10469;42.720;23.252;2023-03-04T11:28:59;94719.38;;;9.39;100.00
20620;BME280;10469;42.720;23.252;2023-03-04T11:31:31;94723.28;;;9.84;100.00
20620;BME280;10469;42.720;23.252;2023-03-04T11:34:12;94717.09;;;10.07;100.00
20620;BME280;10469;42.720;23.252;2023-03-04T11:37:41;94711.66;;;9.90;100.00
20620;BME280;10469;42.720;23.252;2023-03-04T11:42:46;94707.81;;;9.86;100.00
20620;BME280;10469;42.720;23.252;2023-03-04T11:45:24;94697.34;;;10.53;100.00
20620;BME280;10469;42.720;23.252;2023-03-04T11:50:34;94701.47;;;10.72;100.00
20620;BME280;10469;42.720;23.252;2023-03-04T11:53:14;94699.03;;;10.42;100.00
20620;BME280;10469;42.720;23.252;2023-03-04T11:56:18;94695.72;;;10.23;100.00
20620;BME280;10469;42.720;23.252;2023-03-04T12:01:43;94691.25;;;11.75;100.00
20620;BME280;10469;42.720;23.252;2023-03-04T12:04:49;94670.19;;;13.14;100.00
20620;BME280;10469;42.720;23.252;2023-03-04T12:07:45;94677.50;;;12.87;100.00
20620;BME280;10469;42.720;23.252;2023-03-04T12:10:24;94674.88;;;12.97;100.00
20620;BME280;10469;42.720;23.252;2023-03-04T12:27:04;94649.06;;;12.69;100.00
20620;BME280;10469;42.720;23.252;2023-03-04T12:29:45;94653.91;;;12.40;100.00
20620;BME280;10469;42.720;23.252;2023-03-04T12:33:03;94653.41;;;11.77;100.00
20620;BME280;10469;42.720;23.252;2023-03-04T12:35:32;94647.38;;;11.48;100.00
20620;BME280;10469;42.720;23.252;2023-03-04T12:38:29;94652.16;;;10.16;100.00
20620;BME280;10469;42.720;23.252;2023-03-04T12:44:30;94640.13;;;9.50;100.00
20620;BME280;10469;42.720;23.252;2023-03-04T12:46:35;94639.38;;;9.66;100.00
20620;BME280;10469;42.720;23.252;2023-03-04T12:49:28;94636.69;;;9.78;100.00
20620;BME280;10469;42.720;23.252;2023-03-04T12:54:52;94640.50;;;9.30;100.00
20620;BME280;10469;42.720;23.252;2023-03-04T12:57:24;94629.94;;;9.75;100.00
20620;BME280;10469;42.720;23.252;2023-03-04T13:08:14;94614.66;;;9.88;100.00
20620;BME280;10469;42.720;23.252;2023-03-04T13:10:42;94604.84;;;10.22;100.00
20620;BME280;10469;42.720;23.252;2023-03-04T13:13:43;94610.53;;;9.97;100.00
20620;BME280;10469;42.720;23.252;2023-03-04T13:16:43;94594.59;;;10.19;100.00
20620;BME280;10469;42.720;23.252;2023-03-04T13:19:47;94606.81;;;10.26;100.00
20620;BME280;10469;42.720;23.252;2023-03-04T13:25:03;94589.63;;;11.07;100.00
20620;BME280;10469;42.720;23.252;2023-03-04T13:27:49;94593.47;;;9.86;100.00
20620;BME280;10469;42.720;23.252;2023-03-04T13:38:21;94588.91;;;9.87;100.00
20620;BME280;10469;42.720;23.252;2023-03-04T13:41:13;94592.78;;;10.08;100.00
20620;BME280;10469;42.720;23.252;2023-03-04T13:43:45;94586.25;;;10.15;100.00
20620;BME280;10469;42.720;23.252;2023-03-04T13:51:31;94586.06;;;9.24;100.00
20620;BME280;10469;42.720;23.252;2023-03-04T13:56:30;94580.53;;;9.54;100.00
20620;BME280;10469;42.720;23.252;2023-03-04T14:03:59;94556.25;;;9.73;100.00
20620;BME280;10469;42.720;23.252;2023-03-04T14:06:28;94563.97;;;9.69;100.00
20620;BME280;10469;42.720;23.252;2023-03-04T14:08:54;94566.94;;;9.44;100.00
20620;BME280;10469;42.720;23.252;2023-03-04T14:11:33;94572.97;;;9.51;100.00
20620;BME280;10469;42.720;23.252;2023-03-04T14:14:03;94556.06;;;9.63;100.00
20620;BME280;10469;42.720;23.252;2023-03-04T14:16:32;94566.63;;;9.69;100.00
20620;BME280;10469;42.720;23.252;2023-03-04T14:19:02;94556.22;;;9.85;100.00
20620;BME280;10469;42.720;23.252;2023-03-04T14:21:29;94558.78;;;9.79;100.00
20620;BME280;10469;42.720;23.252;2023-03-04T14:24:16;94553.94;;;9.76;100.00
20620;BME280;10469;42.720;23.252;2023-03-04T14:26:42;94554.19;;;9.92;100.00
20620;BME280;10469;42.720;23.252;2023-03-04T14:29:24;94551.03;;;9.95;100.00
20620;BME280;10469;42.720;23.252;2023-03-04T14:31:51;94549.69;;;10.09;100.00